createdAt,value
2019-01-21T00:01:19.249Z,-4.80
2019-01-21T00:03:50.354Z,-4.80
2019-01-21T00:06:19.743Z,-4.80
2019-01-21T00:08:50.178Z,-4.80
2019-01-21T00:11:19.466Z,-4.80
2019-01-21T00:13:48.833Z,-4.80
2019-01-21T00:16:18.822Z,-4.80
2019-01-21T00:18:48.881Z,-4.90
2019-01-21T00:21:18.610Z,-5.00
2019-01-21T00:23:47.870Z,-4.90
2019-01-21T00:26:17.124Z,-5.00
2019-01-21T00:28:46.486Z,-5.00
2019-01-21T00:31:15.730Z,-5.10
2019-01-21T00:33:45.137Z,-5.10
2019-01-21T00:36:14.804Z,-5.10
2019-01-21T00:38:45.162Z,-5.10
2019-01-21T00:41:14.882Z,-5.20
2019-01-21T00:43:44.137Z,-5.20
2019-01-21T00:46:13.818Z,-5.20
2019-01-21T00:48:43.567Z,-5.20
2019-01-21T00:51:12.873Z,-5.30
2019-01-21T00:53:42.195Z,-5.20
2019-01-21T00:56:11.786Z,-5.10
2019-01-21T00:58:41.018Z,-5.10
2019-01-21T01:01:10.268Z,-5.10
2019-01-21T01:03:39.899Z,-5.00
2019-01-21T01:06:10.495Z,-5.00
2019-01-21T01:08:39.846Z,-5.00
2019-01-21T01:11:09.208Z,-5.00
2019-01-21T01:13:38.842Z,-5.00
2019-01-21T01:16:08.636Z,-5.10
2019-01-21T01:18:37.939Z,-5.10
2019-01-21T01:21:07.154Z,-5.00
2019-01-21T01:23:36.614Z,-5.00
2019-01-21T01:26:07.487Z,-5.00
2019-01-21T01:28:37.260Z,-5.00
2019-01-21T01:31:06.554Z,-5.10
2019-01-21T01:33:36.173Z,-5.10
2019-01-21T01:36:05.501Z,-5.20
2019-01-21T01:38:34.749Z,-5.20
2019-01-21T01:41:04.773Z,-5.20
2019-01-21T01:43:34.204Z,-5.20
2019-01-21T01:46:03.542Z,-5.30
2019-01-21T01:48:32.895Z,-5.30
2019-01-21T01:51:02.251Z,-5.30
2019-01-21T01:53:32.221Z,-5.30
2019-01-21T01:56:01.572Z,-5.30
2019-01-21T01:58:31.570Z,-5.30
2019-01-21T02:01:00.936Z,-5.30
2019-01-21T02:03:30.171Z,-5.30
2019-01-21T02:06:00.270Z,-5.30
2019-01-21T02:08:29.692Z,-5.30
2019-01-21T02:10:59.093Z,-5.30
2019-01-21T02:13:28.465Z,-5.40
2019-01-21T02:15:57.921Z,-5.40
2019-01-21T02:18:29.711Z,-5.40
2019-01-21T02:21:01.602Z,-5.40
2019-01-21T02:23:34.507Z,-5.40
2019-01-21T02:26:05.237Z,-5.40
2019-01-21T02:28:48.558Z,-5.50
2019-01-21T02:31:59.552Z,-5.60
2019-01-21T02:35:20.876Z,-5.60
2019-01-21T02:38:17.394Z,-5.70
2019-01-21T02:41:39.015Z,-5.60
2019-01-21T02:44:45.683Z,-5.50
2019-01-21T02:47:51.754Z,-5.50
2019-01-21T02:50:59.473Z,-5.60
2019-01-21T02:53:59.791Z,-5.70
2019-01-21T02:57:19.434Z,-5.70
2019-01-21T03:00:37.148Z,-5.70
2019-01-21T03:03:40.179Z,-5.60
2019-01-21T03:06:49.655Z,-5.60
2019-01-21T03:09:54.968Z,-5.50
2019-01-21T03:13:14.927Z,-5.50
2019-01-21T03:16:11.868Z,-5.40
2019-01-21T03:19:47.244Z,-5.50
2019-01-21T03:22:34.173Z,-5.50
2019-01-21T03:25:44.336Z,-5.60
2019-01-21T03:29:21.964Z,-5.70
2019-01-21T03:32:41.630Z,-5.70
2019-01-21T03:35:49.421Z,-5.60
2019-01-21T03:39:06.283Z,-5.60
2019-01-21T03:42:15.278Z,-5.70
2019-01-21T03:45:34.002Z,-5.70
2019-01-21T03:48:21.463Z,-5.80
2019-01-21T03:51:56.616Z,-5.80
2019-01-21T03:54:59.398Z,-5.70
2019-01-21T03:58:00.630Z,-5.70
2019-01-21T04:00:36.722Z,-5.70
2019-01-21T04:03:34.916Z,-5.70
2019-01-21T04:06:29.023Z,-5.70
2019-01-21T04:09:55.554Z,-5.70
2019-01-21T04:13:25.028Z,-5.70
2019-01-21T04:16:46.419Z,-5.70
2019-01-21T04:23:38.370Z,-5.60
2019-01-21T04:31:18.853Z,-5.50
2019-01-21T06:28:45.661Z,-5.60
2019-01-21T06:31:37.983Z,-5.70
2019-01-21T06:34:44.488Z,-5.60
2019-01-21T06:37:58.940Z,-5.70
2019-01-21T06:41:02.762Z,-5.70
2019-01-21T06:44:20.029Z,-5.80
2019-01-21T06:47:17.313Z,-5.80
2019-01-21T06:50:32.513Z,-5.70
2019-01-21T06:53:56.359Z,-5.60
2019-01-21T06:57:03.731Z,-5.60
2019-01-21T07:00:35.112Z,-5.70
2019-01-21T07:03:41.510Z,-5.80
2019-01-21T07:06:53.845Z,-5.80
2019-01-21T07:09:37.062Z,-5.80
2019-01-21T07:12:49.551Z,-5.80
2019-01-21T07:16:09.072Z,-5.80
2019-01-21T07:19:10.895Z,-5.80
2019-01-21T07:22:20.188Z,-5.70
2019-01-21T07:25:32.128Z,-5.70
2019-01-21T07:35:25.982Z,-5.70
2019-01-21T07:38:39.624Z,-5.80
2019-01-21T07:41:30.294Z,-5.90
2019-01-21T07:44:37.197Z,-5.80
2019-01-21T07:47:49.971Z,-5.60
2019-01-21T07:51:01.169Z,-5.20
2019-01-21T07:54:08.623Z,-5.20
2019-01-21T07:57:08.772Z,-5.10
2019-01-21T07:59:59.483Z,-5.00
2019-01-21T08:02:52.267Z,-5.10
2019-01-21T08:06:06.111Z,-5.10
2019-01-21T08:09:15.008Z,-4.90
2019-01-21T08:12:35.606Z,-4.80
2019-01-21T08:15:42.430Z,-4.60
2019-01-21T08:19:00.984Z,-4.60
2019-01-21T08:21:44.925Z,-4.70
2019-01-21T08:25:01.376Z,-4.50
2019-01-21T08:28:06.291Z,-4.30
2019-01-21T08:31:11.844Z,-4.10
2019-01-21T08:34:31.612Z,-4.00
2019-01-21T08:37:58.525Z,-3.80
2019-01-21T08:41:07.274Z,-3.70
2019-01-21T10:01:52.632Z,-2.10
2019-01-21T10:04:29.666Z,-1.90
2019-01-21T10:10:47.060Z,-1.70
2019-01-21T10:17:11.469Z,-1.50
2019-01-21T10:20:04.138Z,-1.50
2019-01-21T10:27:05.772Z,-1.40
2019-01-21T10:30:16.345Z,-1.10
2019-01-21T10:33:40.393Z,-1.00
2019-01-21T10:37:00.172Z,-1.00
2019-01-21T10:40:14.628Z,-0.90
2019-01-21T10:43:11.819Z,-0.70
2019-01-21T10:46:14.755Z,-0.60
2019-01-21T10:49:16.097Z,-0.60
2019-01-21T10:52:28.048Z,-0.70
2019-01-21T10:55:48.882Z,-0.70
2019-01-21T10:58:52.716Z,-0.50
2019-01-21T11:01:48.863Z,-0.50
2019-01-21T11:05:17.116Z,-0.40
2019-01-21T11:08:26.140Z,-0.50
2019-01-21T11:11:33.680Z,-0.50
2019-01-21T11:14:27.523Z,-0.40
2019-01-21T11:17:40.849Z,-0.40
2019-01-21T11:21:03.438Z,-0.40
2019-01-21T11:24:08.124Z,-0.30
2019-01-21T11:27:04.935Z,-0.10
2019-01-21T11:30:15.203Z,0.20
2019-01-21T11:33:15.047Z,0.40
2019-01-21T11:36:36.449Z,0.30
2019-01-21T11:39:46.988Z,0.10
2019-01-21T11:42:31.854Z,0.10
2019-01-21T11:45:39.593Z,0.30
2019-01-21T11:48:43.251Z,0.50
2019-01-21T11:51:54.629Z,0.40
2019-01-21T11:55:03.164Z,0.30
2019-01-21T11:58:18.222Z,0.20
2019-01-21T12:01:43.461Z,0.20
2019-01-21T12:04:24.359Z,0.30
2019-01-21T12:07:27.703Z,0.40
2019-01-21T12:10:35.364Z,0.50
2019-01-21T12:13:17.311Z,0.50
2019-01-21T12:16:44.192Z,0.80
2019-01-21T12:20:04.199Z,1.00
2019-01-21T12:23:16.329Z,1.00
2019-01-21T12:26:23.801Z,1.00
2019-01-21T12:29:29.964Z,1.10
2019-01-21T12:32:34.816Z,1.30
2019-01-21T12:35:41.057Z,1.30
2019-01-21T12:38:42.596Z,1.30
2019-01-21T12:41:41.412Z,1.50
2019-01-21T12:44:47.556Z,1.50
2019-01-21T12:47:47.475Z,1.50
2019-01-21T12:51:12.958Z,1.50
2019-01-21T12:54:14.641Z,1.60
2019-01-21T12:57:38.818Z,1.70
2019-01-21T13:00:46.059Z,1.70
2019-01-21T13:04:03.592Z,1.70
2019-01-21T13:07:22.742Z,1.70
2019-01-21T13:10:38.992Z,1.80
2019-01-21T13:14:04.610Z,1.70
2019-01-21T13:16:58.212Z,1.70
2019-01-21T13:20:07.361Z,1.70
2019-01-21T13:23:39.019Z,1.70
2019-01-21T13:26:43.665Z,1.80
2019-01-21T13:29:43.744Z,1.90
2019-01-21T13:32:48.511Z,2.20
2019-01-21T13:35:52.355Z,2.20
2019-01-21T13:39:16.703Z,2.10
2019-01-21T13:42:01.026Z,2.00
2019-01-21T13:45:13.858Z,1.90
2019-01-21T13:48:08.063Z,2.00
2019-01-21T13:51:00.012Z,1.90
2019-01-21T13:54:05.252Z,1.80
2019-01-21T13:57:06.031Z,1.80
2019-01-21T14:00:09.315Z,1.90
2019-01-21T14:02:46.573Z,2.00
2019-01-21T14:05:38.637Z,1.90
2019-01-21T14:08:37.208Z,1.90
2019-01-21T14:11:43.215Z,1.90
2019-01-21T14:14:58.714Z,2.00
2019-01-21T14:18:00.959Z,2.00
2019-01-21T14:21:11.219Z,2.00
2019-01-21T14:23:50.675Z,1.90
2019-01-21T14:26:50.110Z,1.80
2019-01-21T14:29:57.605Z,1.90
2019-01-21T14:32:48.000Z,1.80
2019-01-21T14:35:57.840Z,1.80
2019-01-21T14:39:06.389Z,1.80
2019-01-21T14:42:10.805Z,1.80
2019-01-21T14:45:09.721Z,1.80
2019-01-21T14:48:16.949Z,1.70
2019-01-21T14:51:15.851Z,1.70
2019-01-21T14:54:35.845Z,1.60
2019-01-21T14:57:50.691Z,1.60
2019-01-21T15:00:55.454Z,1.50
2019-01-21T15:03:59.840Z,1.50
2019-01-21T15:07:11.538Z,1.40
2019-01-21T15:10:17.705Z,1.40
2019-01-21T15:13:26.963Z,1.40
2019-01-21T15:16:21.116Z,1.30
2019-01-21T15:19:04.687Z,1.20
2019-01-21T15:22:17.272Z,1.10
2019-01-21T15:25:23.703Z,1.00
2019-01-21T15:28:51.836Z,1.00
2019-01-21T15:32:01.162Z,0.90
2019-01-21T15:35:25.059Z,0.90
2019-01-21T15:38:29.946Z,0.90
2019-01-21T15:41:26.517Z,0.70
2019-01-21T15:44:32.958Z,0.70
2019-01-21T15:47:33.333Z,0.60
2019-01-21T15:50:48.150Z,0.50
2019-01-21T15:54:09.830Z,0.50
2019-01-21T15:56:58.604Z,0.40
2019-01-21T16:00:09.152Z,0.40
2019-01-21T16:02:55.427Z,0.30
2019-01-21T16:06:08.903Z,0.30
2019-01-21T16:08:49.089Z,0.30
2019-01-21T16:12:14.200Z,0.20
2019-01-21T16:14:58.254Z,0.10
2019-01-21T16:17:55.815Z,0.00
2019-01-21T16:21:00.200Z,0.00
2019-01-21T16:24:16.250Z,-0.10
2019-01-21T16:26:54.553Z,-0.10
2019-01-21T16:29:37.942Z,-0.20
2019-01-21T16:32:59.134Z,-0.30
2019-01-21T16:36:01.518Z,-0.20
2019-01-21T16:38:49.283Z,-0.20
2019-01-21T16:42:02.526Z,-0.30
2019-01-21T16:44:31.711Z,-0.30
2019-01-21T16:47:00.912Z,-0.40
2019-01-21T16:49:30.162Z,-0.40
2019-01-21T16:51:59.485Z,-0.40
2019-01-21T16:54:28.755Z,-0.40
2019-01-21T16:56:58.054Z,-0.50
2019-01-21T16:59:27.297Z,-0.50
2019-01-21T17:01:56.541Z,-0.50
2019-01-21T17:04:25.767Z,-0.50
2019-01-21T17:06:54.992Z,-0.50
2019-01-21T17:09:24.301Z,-0.50
2019-01-21T17:11:53.536Z,-0.50
2019-01-21T17:14:22.828Z,-0.50
2019-01-21T17:16:52.309Z,-0.50
2019-01-21T17:19:21.524Z,-0.50
2019-01-21T17:21:50.811Z,-0.60
2019-01-21T17:24:20.041Z,-0.60
2019-01-21T17:26:49.316Z,-0.60
2019-01-21T17:29:18.527Z,-0.70
2019-01-21T17:31:47.714Z,-0.70
2019-01-21T17:34:17.152Z,-0.70
2019-01-21T17:36:46.413Z,-0.70
2019-01-21T17:39:15.694Z,-0.70
2019-01-21T17:41:44.910Z,-0.70
2019-01-21T17:44:14.174Z,-0.70
2019-01-21T17:46:43.524Z,-0.70
2019-01-21T17:49:12.806Z,-0.80
2019-01-21T17:51:42.047Z,-0.70
2019-01-21T17:54:11.344Z,-0.70
2019-01-21T17:56:40.617Z,-0.70
2019-01-21T17:59:09.913Z,-0.80
2019-01-21T18:01:39.491Z,-0.70
2019-01-21T18:04:08.889Z,-0.70
2019-01-21T18:06:38.123Z,-0.80
2019-01-21T18:09:09.497Z,-0.70
2019-01-21T18:11:41.388Z,-0.70
2019-01-21T18:14:09.716Z,-0.80
2019-01-21T18:16:38.994Z,-0.80
2019-01-21T18:19:08.263Z,-0.80
2019-01-21T18:21:40.278Z,-0.80
2019-01-21T18:24:09.668Z,-0.80
2019-01-21T18:26:39.039Z,-0.90
2019-01-21T18:29:08.284Z,-0.90
2019-01-21T18:31:37.554Z,-0.90
2019-01-21T18:34:06.791Z,-0.90
2019-01-21T18:36:36.027Z,-0.90
2019-01-21T18:39:09.279Z,-0.90
2019-01-21T18:41:39.573Z,-0.90
2019-01-21T18:44:08.814Z,-1.00
2019-01-21T18:46:38.056Z,-1.00
2019-01-21T18:49:07.265Z,-1.00
2019-01-21T18:51:36.461Z,-1.00
2019-01-21T18:54:05.714Z,-0.90
2019-01-21T18:56:35.364Z,-1.00
2019-01-21T18:59:04.638Z,-1.00
2019-01-21T19:01:33.921Z,-1.00
2019-01-21T19:04:03.184Z,-1.10
2019-01-21T19:06:32.431Z,-1.00
2019-01-21T19:09:01.696Z,-1.00
2019-01-21T19:11:30.972Z,-1.00
2019-01-21T19:14:00.246Z,-1.10
2019-01-21T19:16:29.514Z,-1.10
2019-01-21T19:18:58.817Z,-1.10
2019-01-21T19:21:28.096Z,-1.10
2019-01-21T19:23:57.448Z,-1.10
2019-01-21T19:26:26.751Z,-1.10
2019-01-21T19:28:56.060Z,-1.10
2019-01-21T19:31:25.315Z,-1.10
2019-01-21T19:33:54.673Z,-1.20
2019-01-21T19:36:23.986Z,-1.10
2019-01-21T19:38:53.287Z,-1.20
2019-01-21T19:41:22.686Z,-1.20
2019-01-21T19:43:51.937Z,-1.20
2019-01-21T19:46:21.149Z,-1.20
2019-01-21T19:48:50.457Z,-1.20
2019-01-21T19:51:19.728Z,-1.10
2019-01-21T19:53:49.094Z,-1.20
2019-01-21T19:56:18.255Z,-1.20
2019-01-21T19:58:47.549Z,-1.20
2019-01-21T20:01:17.075Z,-1.20
2019-01-21T20:03:47.496Z,-1.30
2019-01-21T20:06:16.804Z,-1.30
2019-01-21T20:08:46.195Z,-1.40
2019-01-21T20:11:17.488Z,-1.40
2019-01-21T20:13:47.026Z,-1.40
2019-01-21T20:16:16.374Z,-1.40
2019-01-21T20:18:45.637Z,-1.40
2019-01-21T20:21:14.900Z,-1.40
2019-01-21T20:23:44.281Z,-1.40
2019-01-21T20:26:13.614Z,-1.40
2019-01-21T20:28:42.905Z,-1.50
2019-01-21T20:31:12.120Z,-1.40
2019-01-21T20:33:41.536Z,-1.30
2019-01-21T20:36:10.761Z,-1.30
2019-01-21T20:38:40.148Z,-1.20
2019-01-21T20:41:09.378Z,-1.10
2019-01-21T20:43:38.815Z,-1.00
2019-01-21T20:46:09.485Z,-0.80
2019-01-21T20:48:38.770Z,-0.70
2019-01-21T20:51:08.067Z,-0.60
2019-01-21T20:53:37.454Z,-0.60
2019-01-21T20:56:08.133Z,-0.50
2019-01-21T20:58:37.554Z,-0.40
2019-01-21T21:01:06.859Z,-0.40
2019-01-21T21:03:36.091Z,-0.40
2019-01-21T21:06:05.260Z,-0.50
2019-01-21T21:08:34.448Z,-0.50
2019-01-21T21:11:03.888Z,-0.50
2019-01-21T21:13:33.092Z,-0.50
2019-01-21T21:16:02.305Z,-0.50
2019-01-21T21:18:31.356Z,-0.50
2019-01-21T21:21:00.582Z,-0.50
2019-01-21T21:23:29.704Z,-0.40
2019-01-21T21:25:59.018Z,-0.40
2019-01-21T21:28:31.159Z,-0.50
2019-01-21T21:30:59.208Z,-0.40
2019-01-21T21:33:28.543Z,-0.40
2019-01-21T21:35:57.807Z,-0.50
2019-01-21T21:38:27.168Z,-0.50
2019-01-21T21:40:56.422Z,-0.40
2019-01-21T21:43:27.683Z,-0.40
2019-01-21T21:45:57.023Z,-0.40
2019-01-21T21:48:31.709Z,-0.40
2019-01-21T21:50:57.077Z,-0.30
2019-01-21T21:53:26.306Z,-0.20
2019-01-21T21:55:55.472Z,-0.20
2019-01-21T21:58:24.672Z,-0.10
2019-01-21T22:00:53.896Z,-0.10
2019-01-21T22:03:23.091Z,-0.10
2019-01-21T22:05:52.253Z,-0.10
2019-01-21T22:08:21.460Z,-0.10
2019-01-21T22:10:50.653Z,-0.10
2019-01-21T22:13:21.828Z,-0.10
2019-01-21T22:15:50.768Z,-0.20
2019-01-21T22:18:19.951Z,-0.20
2019-01-21T22:20:51.097Z,-0.30
2019-01-21T22:23:20.612Z,-0.40
2019-01-21T22:25:49.824Z,-0.50
2019-01-21T22:28:18.974Z,-0.50
2019-01-21T22:30:48.588Z,-0.50
2019-01-21T22:33:18.057Z,-0.70
2019-01-21T22:35:47.358Z,-0.80
2019-01-21T22:38:16.593Z,-0.70
2019-01-21T22:40:45.832Z,-0.70
2019-01-21T22:43:16.597Z,-0.70
2019-01-21T22:45:45.859Z,-0.60
2019-01-21T22:48:15.056Z,-0.60
2019-01-21T22:50:44.298Z,-0.60
2019-01-21T22:53:13.584Z,-0.60
2019-01-21T22:55:42.895Z,-0.50
2019-01-21T22:58:12.371Z,-0.50
2019-01-21T23:01:09.913Z,-0.40
2019-01-21T23:03:39.399Z,-0.30
2019-01-21T23:06:08.843Z,-0.20
2019-01-21T23:08:38.111Z,-0.10
2019-01-21T23:11:07.366Z,-0.10
2019-01-21T23:13:36.661Z,-0.10
2019-01-21T23:16:05.913Z,0.00
2019-01-21T23:18:35.371Z,0.00
2019-01-21T23:21:04.585Z,0.10
2019-01-21T23:23:33.783Z,0.10
2019-01-21T23:26:03.010Z,0.10
2019-01-21T23:28:32.230Z,0.10
2019-01-21T23:31:01.444Z,0.00
2019-01-21T23:33:30.626Z,0.00
2019-01-21T23:35:59.927Z,0.00
2019-01-21T23:38:29.112Z,0.00
2019-01-21T23:40:58.329Z,0.00
2019-01-21T23:43:27.588Z,0.00
2019-01-21T23:45:56.837Z,0.10
2019-01-21T23:48:25.959Z,0.10
2019-01-21T23:50:55.133Z,0.10
2019-01-21T23:53:24.342Z,0.10
2019-01-21T23:55:53.572Z,0.10
2019-01-21T23:58:23.039Z,0.00
